sensor_id;sensor_type;location;lat;lon;timestamp;P1;durP1;ratioP1;P2;durP2;ratioP2
76765;SDS011;65707;52.362;6.588;2023-05-23T00:01:03;16.48;;;8.38;;
76765;SDS011;65707;52.362;6.588;2023-05-23T00:03:33;17.70;;;8.25;;
76765;SDS011;65707;52.362;6.588;2023-05-23T00:06:00;19.45;;;9.35;;
76765;SDS011;65707;52.362;6.588;2023-05-23T00:08:29;19.50;;;9.75;;
76765;SDS011;65707;52.362;6.588;2023-05-23T00:10:57;20.05;;;9.40;;
76765;SDS011;65707;52.362;6.588;2023-05-23T00:13:24;19.77;;;9.75;;
76765;SDS011;65707;52.362;6.588;2023-05-23T00:15:53;21.25;;;10.70;;
76765;SDS011;65707;52.362;6.588;2023-05-23T00:18:20;23.70;;;11.02;;
76765;SDS011;65707;52.362;6.588;2023-05-23T00:20:48;24.80;;;12.85;;
76765;SDS011;65707;52.362;6.588;2023-05-23T00:23:15;25.88;;;12.80;;
76765;SDS011;65707;52.362;6.588;2023-05-23T00:25:48;24.15;;;12.20;;
76765;SDS011;65707;52.362;6.588;2023-05-23T00:28:16;26.20;;;12.15;;
76765;SDS011;65707;52.362;6.588;2023-05-23T00:30:43;26.90;;;12.85;;
76765;SDS011;65707;52.362;6.588;2023-05-23T00:33:10;23.40;;;12.65;;
76765;SDS011;65707;52.362;6.588;2023-05-23T00:35:38;23.77;;;13.07;;
76765;SDS011;65707;52.362;6.588;2023-05-23T00:38:05;25.58;;;12.75;;
76765;SDS011;65707;52.362;6.588;2023-05-23T00:40:32;27.05;;;13.85;;
76765;SDS011;65707;52.362;6.588;2023-05-23T00:43:00;24.70;;;14.57;;
76765;SDS011;65707;52.362;6.588;2023-05-23T00:45:27;24.27;;;12.20;;
76765;SDS011;65707;52.362;6.588;2023-05-23T00:47:54;22.40;;;12.00;;
76765;SDS011;65707;52.362;6.588;2023-05-23T00:50:23;21.13;;;11.00;;
76765;SDS011;65707;52.362;6.588;2023-05-23T00:52:53;20.02;;;10.45;;
76765;SDS011;65707;52.362;6.588;2023-05-23T00:55:20;20.60;;;10.52;;
76765;SDS011;65707;52.362;6.588;2023-05-23T00:57:48;19.08;;;10.00;;
76765;SDS011;65707;52.362;6.588;2023-05-23T01:00:16;15.27;;;9.40;;
76765;SDS011;65707;52.362;6.588;2023-05-23T01:02:44;17.98;;;8.88;;
76765;SDS011;65707;52.362;6.588;2023-05-23T01:05:12;16.50;;;7.32;;
76765;SDS011;65707;52.362;6.588;2023-05-23T01:07:41;15.32;;;8.25;;
76765;SDS011;65707;52.362;6.588;2023-05-23T01:10:08;14.88;;;8.27;;
76765;SDS011;65707;52.362;6.588;2023-05-23T01:12:40;21.65;;;8.82;;
76765;SDS011;65707;52.362;6.588;2023-05-23T01:15:15;18.13;;;7.00;;
76765;SDS011;65707;52.362;6.588;2023-05-23T01:17:48;18.45;;;6.82;;
76765;SDS011;65707;52.362;6.588;2023-05-23T01:20:21;17.02;;;7.25;;
76765;SDS011;65707;52.362;6.588;2023-05-23T01:22:58;17.45;;;6.68;;
76765;SDS011;65707;52.362;6.588;2023-05-23T01:25:45;19.00;;;7.60;;
76765;SDS011;65707;52.362;6.588;2023-05-23T01:28:26;18.70;;;7.93;;
76765;SDS011;65707;52.362;6.588;2023-05-23T01:30:56;20.42;;;7.57;;
76765;SDS011;65707;52.362;6.588;2023-05-23T01:33:24;20.05;;;8.55;;
76765;SDS011;65707;52.362;6.588;2023-05-23T01:35:54;25.33;;;8.52;;
76765;SDS011;65707;52.362;6.588;2023-05-23T01:38:23;24.80;;;8.98;;
76765;SDS011;65707;52.362;6.588;2023-05-23T01:40:50;19.17;;;9.25;;
76765;SDS011;65707;52.362;6.588;2023-05-23T01:43:16;22.90;;;9.55;;
76765;SDS011;65707;52.362;6.588;2023-05-23T01:45:44;23.27;;;9.85;;
76765;SDS011;65707;52.362;6.588;2023-05-23T01:48:11;24.17;;;9.82;;
76765;SDS011;65707;52.362;6.588;2023-05-23T01:50:40;23.42;;;10.55;;
76765;SDS011;65707;52.362;6.588;2023-05-23T01:53:09;29.40;;;10.82;;
76765;SDS011;65707;52.362;6.588;2023-05-23T01:55:37;27.08;;;10.40;;
76765;SDS011;65707;52.362;6.588;2023-05-23T01:58:08;24.73;;;9.70;;
76765;SDS011;65707;52.362;6.588;2023-05-23T02:00:35;24.92;;;9.77;;
76765;SDS011;65707;52.362;6.588;2023-05-23T02:03:06;24.90;;;10.55;;
76765;SDS011;65707;52.362;6.588;2023-05-23T02:05:32;22.88;;;9.60;;
76765;SDS011;65707;52.362;6.588;2023-05-23T02:07:59;22.27;;;9.35;;
76765;SDS011;65707;52.362;6.588;2023-05-23T02:10:26;21.58;;;9.32;;
76765;SDS011;65707;52.362;6.588;2023-05-23T02:12:52;20.23;;;9.18;;
76765;SDS011;65707;52.362;6.588;2023-05-23T02:15:19;25.38;;;10.75;;
76765;SDS011;65707;52.362;6.588;2023-05-23T02:17:45;27.70;;;11.93;;
76765;SDS011;65707;52.362;6.588;2023-05-23T02:20:16;27.80;;;10.88;;
76765;SDS011;65707;52.362;6.588;2023-05-23T02:22:44;31.70;;;11.18;;
76765;SDS011;65707;52.362;6.588;2023-05-23T02:25:14;31.58;;;11.48;;
76765;SDS011;65707;52.362;6.588;2023-05-23T02:27:41;24.38;;;11.43;;
76765;SDS011;65707;52.362;6.588;2023-05-23T02:30:10;28.63;;;12.15;;
76765;SDS011;65707;52.362;6.588;2023-05-23T02:32:38;34.40;;;12.23;;
76765;SDS011;65707;52.362;6.588;2023-05-23T02:35:05;25.83;;;11.20;;
76765;SDS011;65707;52.362;6.588;2023-05-23T02:37:33;27.75;;;12.05;;
76765;SDS011;65707;52.362;6.588;2023-05-23T02:40:00;26.42;;;11.00;;
76765;SDS011;65707;52.362;6.588;2023-05-23T02:42:31;28.20;;;11.07;;
76765;SDS011;65707;52.362;6.588;2023-05-23T02:44:57;28.13;;;10.80;;
76765;SDS011;65707;52.362;6.588;2023-05-23T02:47:27;28.15;;;10.75;;
76765;SDS011;65707;52.362;6.588;2023-05-23T02:49:56;24.40;;;10.27;;
76765;SDS011;65707;52.362;6.588;2023-05-23T02:52:23;26.30;;;10.88;;
76765;SDS011;65707;52.362;6.588;2023-05-23T02:54:51;25.33;;;10.40;;
76765;SDS011;65707;52.362;6.588;2023-05-23T02:57:18;20.08;;;9.15;;
76765;SDS011;65707;52.362;6.588;2023-05-23T02:59:47;27.83;;;9.80;;
76765;SDS011;65707;52.362;6.588;2023-05-23T03:02:13;21.40;;;9.23;;
76765;SDS011;65707;52.362;6.588;2023-05-23T03:04:40;28.90;;;9.82;;
76765;SDS011;65707;52.362;6.588;2023-05-23T03:07:08;26.35;;;10.10;;
76765;SDS011;65707;52.362;6.588;2023-05-23T03:09:36;24.58;;;9.63;;
76765;SDS011;65707;52.362;6.588;2023-05-23T03:12:04;24.58;;;9.90;;
76765;SDS011;65707;52.362;6.588;2023-05-23T03:14:31;26.65;;;10.38;;
76765;SDS011;65707;52.362;6.588;2023-05-23T03:16:58;27.13;;;10.88;;
76765;SDS011;65707;52.362;6.588;2023-05-23T03:19:28;28.00;;;10.30;;
76765;SDS011;65707;52.362;6.588;2023-05-23T03:21:55;31.90;;;10.50;;
76765;SDS011;65707;52.362;6.588;2023-05-23T03:24:21;29.92;;;10.95;;
76765;SDS011;65707;52.362;6.588;2023-05-23T03:26:48;34.30;;;11.48;;
76765;SDS011;65707;52.362;6.588;2023-05-23T03:29:16;30.08;;;11.02;;
76765;SDS011;65707;52.362;6.588;2023-05-23T03:31:44;30.13;;;10.20;;
76765;SDS011;65707;52.362;6.588;2023-05-23T03:34:10;27.17;;;10.63;;
76765;SDS011;65707;52.362;6.588;2023-05-23T03:36:37;31.67;;;10.63;;
76765;SDS011;65707;52.362;6.588;2023-05-23T03:39:04;27.40;;;10.18;;
76765;SDS011;65707;52.362;6.588;2023-05-23T03:41:33;32.85;;;10.43;;
76765;SDS011;65707;52.362;6.588;2023-05-23T03:44:01;28.63;;;10.38;;
76765;SDS011;65707;52.362;6.588;2023-05-23T03:46:29;29.98;;;10.30;;
76765;SDS011;65707;52.362;6.588;2023-05-23T03:48:59;25.45;;;9.35;;
76765;SDS011;65707;52.362;6.588;2023-05-23T03:51:25;24.95;;;9.43;;
76765;SDS011;65707;52.362;6.588;2023-05-23T03:53:53;26.00;;;9.65;;
76765;SDS011;65707;52.362;6.588;2023-05-23T03:56:23;26.48;;;8.20;;
76765;SDS011;65707;52.362;6.588;2023-05-23T03:58:50;23.33;;;8.45;;
76765;SDS011;65707;52.362;6.588;2023-05-23T04:01:17;21.25;;;8.45;;
76765;SDS011;65707;52.362;6.588;2023-05-23T04:03:45;20.95;;;8.80;;
76765;SDS011;65707;52.362;6.588;2023-05-23T04:06:12;21.90;;;8.60;;
76765;SDS011;65707;52.362;6.588;2023-05-23T04:08:41;19.55;;;7.57;;
76765;SDS011;65707;52.362;6.588;2023-05-23T04:11:07;22.30;;;8.40;;
76765;SDS011;65707;52.362;6.588;2023-05-23T04:13:38;22.10;;;7.85;;
76765;SDS011;65707;52.362;6.588;2023-05-23T04:16:06;19.13;;;7.50;;
76765;SDS011;65707;52.362;6.588;2023-05-23T04:18:35;17.00;;;7.60;;
76765;SDS011;65707;52.362;6.588;2023-05-23T04:21:04;26.45;;;7.10;;
76765;SDS011;65707;52.362;6.588;2023-05-23T04:23:31;18.80;;;7.63;;
76765;SDS011;65707;52.362;6.588;2023-05-23T04:25:57;17.80;;;6.57;;
76765;SDS011;65707;52.362;6.588;2023-05-23T04:28:24;17.00;;;7.30;;
76765;SDS011;65707;52.362;6.588;2023-05-23T04:30:54;19.80;;;6.82;;
76765;SDS011;65707;52.362;6.588;2023-05-23T04:33:24;19.35;;;7.47;;
76765;SDS011;65707;52.362;6.588;2023-05-23T04:38:19;15.98;;;6.72;;
76765;SDS011;65707;52.362;6.588;2023-05-23T04:40:46;18.85;;;7.07;;
76765;SDS011;65707;52.362;6.588;2023-05-23T04:43:15;19.55;;;7.55;;
76765;SDS011;65707;52.362;6.588;2023-05-23T04:45:42;19.75;;;6.47;;
76765;SDS011;65707;52.362;6.588;2023-05-23T04:48:08;17.83;;;6.70;;
76765;SDS011;65707;52.362;6.588;2023-05-23T04:50:37;14.57;;;6.43;;
76765;SDS011;65707;52.362;6.588;2023-05-23T04:53:04;19.45;;;6.65;;
76765;SDS011;65707;52.362;6.588;2023-05-23T04:55:32;19.13;;;7.28;;
76765;SDS011;65707;52.362;6.588;2023-05-23T04:57:59;20.35;;;6.55;;
76765;SDS011;65707;52.362;6.588;2023-05-23T05:00:25;19.35;;;6.30;;
76765;SDS011;65707;52.362;6.588;2023-05-23T05:02:52;17.35;;;6.45;;
76765;SDS011;65707;52.362;6.588;2023-05-23T05:05:18;20.17;;;6.70;;
76765;SDS011;65707;52.362;6.588;2023-05-23T05:07:45;24.85;;;7.07;;
76765;SDS011;65707;52.362;6.588;2023-05-23T05:10:11;18.15;;;6.70;;
76765;SDS011;65707;52.362;6.588;2023-05-23T05:12:42;20.85;;;7.00;;
76765;SDS011;65707;52.362;6.588;2023-05-23T05:15:09;19.23;;;6.72;;
76765;SDS011;65707;52.362;6.588;2023-05-23T05:17:36;20.05;;;5.72;;
76765;SDS011;65707;52.362;6.588;2023-05-23T05:20:03;17.30;;;6.10;;
76765;SDS011;65707;52.362;6.588;2023-05-23T05:22:32;22.42;;;6.43;;
76765;SDS011;65707;52.362;6.588;2023-05-23T05:24:59;19.65;;;5.57;;
76765;SDS011;65707;52.362;6.588;2023-05-23T05:27:25;20.15;;;5.68;;
76765;SDS011;65707;52.362;6.588;2023-05-23T05:29:53;17.10;;;5.18;;
76765;SDS011;65707;52.362;6.588;2023-05-23T05:32:22;19.27;;;6.45;;
76765;SDS011;65707;52.362;6.588;2023-05-23T05:34:49;18.63;;;5.03;;
76765;SDS011;65707;52.362;6.588;2023-05-23T05:37:15;18.85;;;6.00;;
76765;SDS011;65707;52.362;6.588;2023-05-23T05:39:42;17.85;;;5.57;;
76765;SDS011;65707;52.362;6.588;2023-05-23T05:42:08;16.20;;;5.05;;
76765;SDS011;65707;52.362;6.588;2023-05-23T05:44:35;13.73;;;4.05;;
76765;SDS011;65707;52.362;6.588;2023-05-23T05:47:03;13.95;;;4.47;;
76765;SDS011;65707;52.362;6.588;2023-05-23T05:49:30;12.65;;;4.40;;
76765;SDS011;65707;52.362;6.588;2023-05-23T05:51:58;14.85;;;4.53;;
76765;SDS011;65707;52.362;6.588;2023-05-23T05:54:25;20.55;;;5.30;;
76765;SDS011;65707;52.362;6.588;2023-05-23T05:56:54;15.13;;;4.80;;
76765;SDS011;65707;52.362;6.588;2023-05-23T05:59:24;16.55;;;5.43;;
76765;SDS011;65707;52.362;6.588;2023-05-23T06:01:51;15.90;;;6.03;;
76765;SDS011;65707;52.362;6.588;2023-05-23T06:04:19;15.15;;;5.20;;
76765;SDS011;65707;52.362;6.588;2023-05-23T06:06:50;16.63;;;5.40;;
76765;SDS011;65707;52.362;6.588;2023-05-23T06:09:17;16.65;;;5.55;;
76765;SDS011;65707;52.362;6.588;2023-05-23T06:11:43;15.48;;;4.95;;
76765;SDS011;65707;52.362;6.588;2023-05-23T06:14:10;13.55;;;4.70;;
76765;SDS011;65707;52.362;6.588;2023-05-23T06:16:37;17.25;;;4.22;;
76765;SDS011;65707;52.362;6.588;2023-05-23T06:19:04;15.13;;;4.18;;
76765;SDS011;65707;52.362;6.588;2023-05-23T06:21:34;15.82;;;5.30;;
76765;SDS011;65707;52.362;6.588;2023-05-23T06:24:01;16.83;;;4.90;;
76765;SDS011;65707;52.362;6.588;2023-05-23T06:26:27;18.80;;;5.93;;
76765;SDS011;65707;52.362;6.588;2023-05-23T06:28:54;15.35;;;5.35;;
76765;SDS011;65707;52.362;6.588;2023-05-23T06:31:20;17.42;;;5.45;;
76765;SDS011;65707;52.362;6.588;2023-05-23T06:33:47;17.15;;;5.05;;
76765;SDS011;65707;52.362;6.588;2023-05-23T06:36:13;17.70;;;4.35;;
76765;SDS011;65707;52.362;6.588;2023-05-23T06:38:43;15.30;;;5.00;;
76765;SDS011;65707;52.362;6.588;2023-05-23T06:41:10;15.13;;;4.43;;
76765;SDS011;65707;52.362;6.588;2023-05-23T06:43:37;18.23;;;4.50;;
76765;SDS011;65707;52.362;6.588;2023-05-23T06:46:10;14.02;;;3.92;;
76765;SDS011;65707;52.362;6.588;2023-05-23T06:48:39;10.82;;;3.70;;
76765;SDS011;65707;52.362;6.588;2023-05-23T06:51:08;13.82;;;4.10;;
76765;SDS011;65707;52.362;6.588;2023-05-23T06:53:35;17.85;;;4.07;;
76765;SDS011;65707;52.362;6.588;2023-05-23T06:56:03;15.48;;;4.03;;
76765;SDS011;65707;52.362;6.588;2023-05-23T06:58:30;15.73;;;4.43;;
76765;SDS011;65707;52.362;6.588;2023-05-23T07:00:57;11.90;;;3.60;;
76765;SDS011;65707;52.362;6.588;2023-05-23T07:03:23;11.27;;;4.43;;
76765;SDS011;65707;52.362;6.588;2023-05-23T07:05:50;11.32;;;3.30;;
76765;SDS011;65707;52.362;6.588;2023-05-23T07:08:18;11.82;;;3.97;;
76765;SDS011;65707;52.362;6.588;2023-05-23T07:10:45;15.98;;;4.53;;
76765;SDS011;65707;52.362;6.588;2023-05-23T07:13:13;12.80;;;4.00;;
76765;SDS011;65707;52.362;6.588;2023-05-23T07:15:39;16.20;;;4.32;;
76765;SDS011;65707;52.362;6.588;2023-05-23T07:18:06;12.35;;;3.65;;
76765;SDS011;65707;52.362;6.588;2023-05-23T07:20:32;17.38;;;4.45;;
76765;SDS011;65707;52.362;6.588;2023-05-23T07:22:59;14.77;;;4.60;;
76765;SDS011;65707;52.362;6.588;2023-05-23T07:25:30;16.52;;;4.55;;
76765;SDS011;65707;52.362;6.588;2023-05-23T07:27:56;15.52;;;4.40;;
76765;SDS011;65707;52.362;6.588;2023-05-23T07:30:24;14.63;;;4.15;;
76765;SDS011;65707;52.362;6.588;2023-05-23T07:32:51;14.50;;;4.05;;
76765;SDS011;65707;52.362;6.588;2023-05-23T07:35:17;11.90;;;3.88;;
76765;SDS011;65707;52.362;6.588;2023-05-23T07:37:48;14.00;;;3.53;;
76765;SDS011;65707;52.362;6.588;2023-05-23T07:40:17;15.93;;;4.35;;
76765;SDS011;65707;52.362;6.588;2023-05-23T07:42:47;10.93;;;3.25;;
76765;SDS011;65707;52.362;6.588;2023-05-23T07:45:17;16.65;;;3.92;;
76765;SDS011;65707;52.362;6.588;2023-05-23T07:47:47;14.93;;;4.20;;
76765;SDS011;65707;52.362;6.588;2023-05-23T07:50:14;15.70;;;3.55;;
76765;SDS011;65707;52.362;6.588;2023-05-23T07:52:42;11.80;;;4.05;;
76765;SDS011;65707;52.362;6.588;2023-05-23T07:55:09;12.32;;;3.15;;
76765;SDS011;65707;52.362;6.588;2023-05-23T07:57:37;8.50;;;2.70;;
76765;SDS011;65707;52.362;6.588;2023-05-23T08:00:12;11.65;;;2.90;;
76765;SDS011;65707;52.362;6.588;2023-05-23T08:02:39;14.50;;;3.60;;
76765;SDS011;65707;52.362;6.588;2023-05-23T08:05:08;12.98;;;3.40;;
76765;SDS011;65707;52.362;6.588;2023-05-23T08:07:37;16.58;;;3.10;;
76765;SDS011;65707;52.362;6.588;2023-05-23T08:10:05;14.35;;;3.30;;
76765;SDS011;65707;52.362;6.588;2023-05-23T08:12:33;13.10;;;3.30;;
76765;SDS011;65707;52.362;6.588;2023-05-23T08:15:01;14.02;;;3.20;;
76765;SDS011;65707;52.362;6.588;2023-05-23T08:17:31;12.07;;;3.35;;
76765;SDS011;65707;52.362;6.588;2023-05-23T08:20:02;10.90;;;3.20;;
76765;SDS011;65707;52.362;6.588;2023-05-23T08:22:31;13.07;;;2.95;;
76765;SDS011;65707;52.362;6.588;2023-05-23T08:27:26;15.70;;;2.80;;
76765;SDS011;65707;52.362;6.588;2023-05-23T08:29:54;11.30;;;2.40;;
76765;SDS011;65707;52.362;6.588;2023-05-23T08:32:20;12.65;;;2.47;;
76765;SDS011;65707;52.362;6.588;2023-05-23T08:34:49;11.07;;;2.30;;
76765;SDS011;65707;52.362;6.588;2023-05-23T08:37:16;12.18;;;2.53;;
76765;SDS011;65707;52.362;6.588;2023-05-23T08:39:43;12.20;;;2.53;;
76765;SDS011;65707;52.362;6.588;2023-05-23T08:42:10;12.15;;;2.78;;
76765;SDS011;65707;52.362;6.588;2023-05-23T08:44:36;13.45;;;2.92;;
76765;SDS011;65707;52.362;6.588;2023-05-23T08:47:04;13.75;;;3.05;;
76765;SDS011;65707;52.362;6.588;2023-05-23T08:49:34;10.88;;;2.65;;
76765;SDS011;65707;52.362;6.588;2023-05-23T08:52:03;17.35;;;3.33;;
76765;SDS011;65707;52.362;6.588;2023-05-23T08:54:30;16.98;;;2.70;;
76765;SDS011;65707;52.362;6.588;2023-05-23T08:56:59;14.90;;;3.15;;
76765;SDS011;65707;52.362;6.588;2023-05-23T08:59:26;20.25;;;2.85;;
76765;SDS011;65707;52.362;6.588;2023-05-23T09:01:55;19.20;;;2.75;;
76765;SDS011;65707;52.362;6.588;2023-05-23T09:04:22;13.68;;;2.88;;
76765;SDS011;65707;52.362;6.588;2023-05-23T09:06:49;11.82;;;2.33;;
76765;SDS011;65707;52.362;6.588;2023-05-23T09:09:16;13.60;;;2.55;;
76765;SDS011;65707;52.362;6.588;2023-05-23T09:11:45;11.95;;;2.20;;
76765;SDS011;65707;52.362;6.588;2023-05-23T09:14:13;8.13;;;2.15;;
76765;SDS011;65707;52.362;6.588;2023-05-23T09:16:42;17.05;;;3.15;;
76765;SDS011;65707;52.362;6.588;2023-05-23T09:19:13;16.33;;;2.95;;
76765;SDS011;65707;52.362;6.588;2023-05-23T09:21:41;12.00;;;2.58;;
76765;SDS011;65707;52.362;6.588;2023-05-23T09:24:11;13.45;;;2.78;;
76765;SDS011;65707;52.362;6.588;2023-05-23T09:26:40;12.18;;;2.67;;
76765;SDS011;65707;52.362;6.588;2023-05-23T09:29:07;16.70;;;2.92;;
76765;SDS011;65707;52.362;6.588;2023-05-23T09:31:35;18.92;;;3.10;;
76765;SDS011;65707;52.362;6.588;2023-05-23T09:34:01;13.20;;;2.15;;
76765;SDS011;65707;52.362;6.588;2023-05-23T09:36:31;13.85;;;2.63;;
76765;SDS011;65707;52.362;6.588;2023-05-23T09:39:00;11.25;;;1.92;;
76765;SDS011;65707;52.362;6.588;2023-05-23T09:41:31;10.05;;;2.30;;
76765;SDS011;65707;52.362;6.588;2023-05-23T09:43:59;12.75;;;2.15;;
76765;SDS011;65707;52.362;6.588;2023-05-23T09:46:33;11.15;;;2.60;;
76765;SDS011;65707;52.362;6.588;2023-05-23T09:49:04;14.00;;;2.80;;
76765;SDS011;65707;52.362;6.588;2023-05-23T09:51:45;15.77;;;2.70;;
76765;SDS011;65707;52.362;6.588;2023-05-23T09:54:22;15.52;;;2.88;;
76765;SDS011;65707;52.362;6.588;2023-05-23T09:56:49;15.82;;;2.78;;
76765;SDS011;65707;52.362;6.588;2023-05-23T09:59:21;16.10;;;3.13;;
76765;SDS011;65707;52.362;6.588;2023-05-23T10:01:51;13.93;;;3.20;;
76765;SDS011;65707;52.362;6.588;2023-05-23T10:04:21;12.20;;;2.72;;
76765;SDS011;65707;52.362;6.588;2023-05-23T10:06:53;14.65;;;3.08;;
76765;SDS011;65707;52.362;6.588;2023-05-23T10:09:25;11.60;;;2.83;;
76765;SDS011;65707;52.362;6.588;2023-05-23T10:15:10;9.70;;;2.35;;
76765;SDS011;65707;52.362;6.588;2023-05-23T10:17:46;11.65;;;2.83;;
76765;SDS011;65707;52.362;6.588;2023-05-23T10:20:24;13.18;;;2.47;;
76765;SDS011;65707;52.362;6.588;2023-05-23T10:22:51;14.88;;;2.92;;
76765;SDS011;65707;52.362;6.588;2023-05-23T10:25:19;13.73;;;2.75;;
76765;SDS011;65707;52.362;6.588;2023-05-23T10:27:49;13.77;;;2.80;;
76765;SDS011;65707;52.362;6.588;2023-05-23T10:30:22;14.32;;;2.90;;
76765;SDS011;65707;52.362;6.588;2023-05-23T10:32:51;11.20;;;2.80;;
76765;SDS011;65707;52.362;6.588;2023-05-23T10:35:22;13.30;;;2.80;;
76765;SDS011;65707;52.362;6.588;2023-05-23T10:37:56;11.82;;;2.70;;
76765;SDS011;65707;52.362;6.588;2023-05-23T10:40:30;16.42;;;2.90;;
76765;SDS011;65707;52.362;6.588;2023-05-23T10:43:12;11.73;;;3.10;;
76765;SDS011;65707;52.362;6.588;2023-05-23T10:48:19;17.30;;;2.67;;
76765;SDS011;65707;52.362;6.588;2023-05-23T10:51:00;12.23;;;2.75;;
76765;SDS011;65707;52.362;6.588;2023-05-23T10:53:28;11.77;;;2.60;;
76765;SDS011;65707;52.362;6.588;2023-05-23T10:55:55;9.98;;;2.53;;
76765;SDS011;65707;52.362;6.588;2023-05-23T10:58:33;9.77;;;2.42;;
76765;SDS011;65707;52.362;6.588;2023-05-23T11:01:01;9.88;;;2.85;;
76765;SDS011;65707;52.362;6.588;2023-05-23T11:03:33;16.50;;;3.30;;
76765;SDS011;65707;52.362;6.588;2023-05-23T11:06:00;13.52;;;2.92;;
76765;SDS011;65707;52.362;6.588;2023-05-23T11:08:35;12.40;;;3.30;;
76765;SDS011;65707;52.362;6.588;2023-05-23T11:11:07;12.38;;;2.83;;
76765;SDS011;65707;52.362;6.588;2023-05-23T11:16:27;13.40;;;2.78;;
76765;SDS011;65707;52.362;6.588;2023-05-23T11:21:51;12.65;;;2.25;;
76765;SDS011;65707;52.362;6.588;2023-05-23T11:24:20;10.60;;;2.50;;
76765;SDS011;65707;52.362;6.588;2023-05-23T11:26:53;10.77;;;2.35;;
76765;SDS011;65707;52.362;6.588;2023-05-23T11:29:24;16.38;;;2.75;;
76765;SDS011;65707;52.362;6.588;2023-05-23T11:31:51;12.02;;;2.47;;
76765;SDS011;65707;52.362;6.588;2023-05-23T11:34:23;14.07;;;2.67;;
76765;SDS011;65707;52.362;6.588;2023-05-23T11:36:55;17.33;;;2.67;;
76765;SDS011;65707;52.362;6.588;2023-05-23T11:39:22;10.23;;;2.78;;
76765;SDS011;65707;52.362;6.588;2023-05-23T11:41:57;13.73;;;2.85;;
76765;SDS011;65707;52.362;6.588;2023-05-23T11:44:25;10.45;;;2.10;;
76765;SDS011;65707;52.362;6.588;2023-05-23T11:47:00;11.35;;;2.28;;
76765;SDS011;65707;52.362;6.588;2023-05-23T11:49:33;9.32;;;2.03;;
76765;SDS011;65707;52.362;6.588;2023-05-23T11:52:02;12.57;;;2.45;;
76765;SDS011;65707;52.362;6.588;2023-05-23T11:54:30;9.82;;;2.60;;
76765;SDS011;65707;52.362;6.588;2023-05-23T11:57:01;11.15;;;2.20;;
76765;SDS011;65707;52.362;6.588;2023-05-23T11:59:28;12.20;;;2.47;;
76765;SDS011;65707;52.362;6.588;2023-05-23T12:01:54;11.82;;;2.05;;
76765;SDS011;65707;52.362;6.588;2023-05-23T12:04:23;14.18;;;2.55;;
76765;SDS011;65707;52.362;6.588;2023-05-23T12:09:18;11.55;;;1.88;;
76765;SDS011;65707;52.362;6.588;2023-05-23T12:11:53;11.43;;;2.33;;
76765;SDS011;65707;52.362;6.588;2023-05-23T12:14:21;11.35;;;2.20;;
76765;SDS011;65707;52.362;6.588;2023-05-23T12:16:48;15.52;;;2.72;;
76765;SDS011;65707;52.362;6.588;2023-05-23T12:21:44;12.68;;;2.47;;
76765;SDS011;65707;52.362;6.588;2023-05-23T12:24:14;10.52;;;2.30;;
76765;SDS011;65707;52.362;6.588;2023-05-23T12:26:45;9.40;;;1.73;;
76765;SDS011;65707;52.362;6.588;2023-05-23T12:29:15;15.40;;;2.97;;
76765;SDS011;65707;52.362;6.588;2023-05-23T12:31:46;12.93;;;2.03;;
76765;SDS011;65707;52.362;6.588;2023-05-23T12:34:15;13.30;;;2.55;;
76765;SDS011;65707;52.362;6.588;2023-05-23T12:36:42;17.08;;;2.20;;
76765;SDS011;65707;52.362;6.588;2023-05-23T12:39:09;9.55;;;2.25;;
76765;SDS011;65707;52.362;6.588;2023-05-23T12:41:41;9.80;;;2.00;;
76765;SDS011;65707;52.362;6.588;2023-05-23T12:44:09;11.23;;;2.00;;
76765;SDS011;65707;52.362;6.588;2023-05-23T12:46:38;9.48;;;1.92;;
76765;SDS011;65707;52.362;6.588;2023-05-23T12:49:04;11.43;;;2.30;;
76765;SDS011;65707;52.362;6.588;2023-05-23T12:51:34;11.75;;;2.38;;
76765;SDS011;65707;52.362;6.588;2023-05-23T12:54:00;11.88;;;2.60;;
76765;SDS011;65707;52.362;6.588;2023-05-23T12:56:28;8.95;;;1.95;;
76765;SDS011;65707;52.362;6.588;2023-05-23T12:58:58;10.15;;;2.20;;
76765;SDS011;65707;52.362;6.588;2023-05-23T13:01:26;9.10;;;2.00;;
76765;SDS011;65707;52.362;6.588;2023-05-23T13:03:55;9.65;;;2.20;;
76765;SDS011;65707;52.362;6.588;2023-05-23T13:08:51;12.05;;;2.15;;
76765;SDS011;65707;52.362;6.588;2023-05-23T13:11:21;10.52;;;2.10;;
76765;SDS011;65707;52.362;6.588;2023-05-23T13:13:49;14.07;;;2.53;;
76765;SDS011;65707;52.362;6.588;2023-05-23T13:16:18;12.25;;;2.40;;
76765;SDS011;65707;52.362;6.588;2023-05-23T13:18:44;11.13;;;2.30;;
76765;SDS011;65707;52.362;6.588;2023-05-23T13:21:13;11.95;;;2.45;;
76765;SDS011;65707;52.362;6.588;2023-05-23T13:23:39;10.48;;;2.13;;
76765;SDS011;65707;52.362;6.588;2023-05-23T13:26:09;11.80;;;2.22;;
76765;SDS011;65707;52.362;6.588;2023-05-23T13:28:35;10.15;;;2.05;;
76765;SDS011;65707;52.362;6.588;2023-05-23T13:31:02;8.15;;;1.90;;
76765;SDS011;65707;52.362;6.588;2023-05-23T13:33:30;10.02;;;2.00;;
76765;SDS011;65707;52.362;6.588;2023-05-23T13:35:56;10.55;;;2.15;;
76765;SDS011;65707;52.362;6.588;2023-05-23T13:38:23;10.00;;;1.95;;
76765;SDS011;65707;52.362;6.588;2023-05-23T13:40:53;11.07;;;2.17;;
76765;SDS011;65707;52.362;6.588;2023-05-23T13:43:20;11.23;;;2.70;;
76765;SDS011;65707;52.362;6.588;2023-05-23T13:45:46;11.15;;;2.33;;
76765;SDS011;65707;52.362;6.588;2023-05-23T13:48:13;10.35;;;1.92;;
76765;SDS011;65707;52.362;6.588;2023-05-23T13:50:41;11.75;;;2.50;;
76765;SDS011;65707;52.362;6.588;2023-05-23T13:53:08;10.90;;;2.00;;
76765;SDS011;65707;52.362;6.588;2023-05-23T13:55:39;11.38;;;2.50;;
76765;SDS011;65707;52.362;6.588;2023-05-23T13:58:05;10.23;;;1.90;;
76765;SDS011;65707;52.362;6.588;2023-05-23T14:00:32;9.10;;;2.40;;
76765;SDS011;65707;52.362;6.588;2023-05-23T14:02:58;9.75;;;2.28;;
76765;SDS011;65707;52.362;6.588;2023-05-23T14:05:27;11.45;;;2.47;;
76765;SDS011;65707;52.362;6.588;2023-05-23T14:07:55;12.95;;;2.20;;
76765;SDS011;65707;52.362;6.588;2023-05-23T14:10:22;12.40;;;2.30;;
76765;SDS011;65707;52.362;6.588;2023-05-23T14:12:48;8.13;;;1.77;;
76765;SDS011;65707;52.362;6.588;2023-05-23T14:15:15;9.50;;;2.05;;
76765;SDS011;65707;52.362;6.588;2023-05-23T14:17:44;10.95;;;1.88;;
76765;SDS011;65707;52.362;6.588;2023-05-23T14:20:11;11.00;;;1.92;;
76765;SDS011;65707;52.362;6.588;2023-05-23T14:22:38;12.25;;;1.90;;
76765;SDS011;65707;52.362;6.588;2023-05-23T14:25:06;12.82;;;2.08;;
76765;SDS011;65707;52.362;6.588;2023-05-23T14:27:33;9.45;;;1.95;;
76765;SDS011;65707;52.362;6.588;2023-05-23T14:30:00;10.55;;;2.33;;
76765;SDS011;65707;52.362;6.588;2023-05-23T14:32:29;10.70;;;1.90;;
76765;SDS011;65707;52.362;6.588;2023-05-23T14:34:59;10.70;;;2.00;;
76765;SDS011;65707;52.362;6.588;2023-05-23T14:37:26;9.68;;;1.98;;
76765;SDS011;65707;52.362;6.588;2023-05-23T14:39:52;9.60;;;1.90;;
76765;SDS011;65707;52.362;6.588;2023-05-23T14:42:22;10.07;;;2.03;;
76765;SDS011;65707;52.362;6.588;2023-05-23T14:44:51;11.00;;;1.92;;
76765;SDS011;65707;52.362;6.588;2023-05-23T14:47:17;9.10;;;1.85;;
76765;SDS011;65707;52.362;6.588;2023-05-23T14:49:44;9.27;;;1.80;;
76765;SDS011;65707;52.362;6.588;2023-05-23T14:52:12;9.05;;;2.38;;
76765;SDS011;65707;52.362;6.588;2023-05-23T14:54:44;11.00;;;1.92;;
76765;SDS011;65707;52.362;6.588;2023-05-23T14:57:11;12.48;;;2.17;;
76765;SDS011;65707;52.362;6.588;2023-05-23T14:59:39;11.60;;;2.53;;
76765;SDS011;65707;52.362;6.588;2023-05-23T15:02:05;14.68;;;3.70;;
76765;SDS011;65707;52.362;6.588;2023-05-23T15:04:38;10.07;;;2.42;;